Time;durP1;ratioP1;P1;durP2;ratioP2;P2;SDS_P1;SDS_P2;PMS_P1;PMS_P2;Temp;Humidity;BMP_temperature;BMP_pressure;BME280_temperature;BME280_humidity;BME280_pressure;Samples;Min_cycle;Max_cycle;Signal;HPM_P1;HPM_P2
2023/04/22 00:02:13;;;;;;;1.12;1.02;;;;;;;13.14;50.47;99366.88;4438403;32;34001;-82
2023/04/22 00:04:42;;;;;;;3.90;2.25;;;;;;;13.16;50.42;99368.53;4441209;32;32895;-81
2023/04/22 00:07:11;;;;;;;1.20;1.10;;;;;;;13.23;50.53;99371.81;4445042;32;34211;-81
2023/04/22 00:09:42;;;;;;;1.35;1.23;;;;;;;13.15;50.85;99376.41;4447244;32;33870;-82
2023/04/22 00:12:11;;;;;;;1.00;0.90;;;;;;;13.12;50.75;99372.16;4443729;32;33460;-80
2023/04/22 00:14:40;;;;;;;2.67;1.65;;;;;;;13.05;50.72;99359.31;4428982;32;32957;-82
2023/04/22 00:17:08;;;;;;;1.10;1.00;;;;;;;13.09;50.92;99366.16;4418575;32;34610;-82
2023/04/22 00:19:37;;;;;;;1.42;0.95;;;;;;;13.31;50.17;99367.25;4438020;32;34731;-82
2023/04/22 00:22:07;;;;;;;0.98;0.98;;;;;;;13.20;50.28;99364.12;4442416;32;34062;-81
2023/04/22 00:24:35;;;;;;;3.22;1.55;;;;;;;13.22;50.08;99365.78;4439005;32;33856;-81
2023/04/22 00:27:06;;;;;;;0.95;0.95;;;;;;;13.16;50.24;99368.53;4439492;32;33850;-81
2023/04/22 00:29:35;;;;;;;1.00;0.98;;;;;;;13.40;49.22;99366.16;4447890;32;33259;-81
2023/04/22 00:32:04;;;;;;;3.00;0.80;;;;;;;13.31;49.43;99367.25;4440452;32;33631;-80
2023/04/22 00:34:33;;;;;;;0.90;0.90;;;;;;;13.07;49.82;99365.34;4443796;32;34465;-82
2023/04/22 00:37:02;;;;;;;1.30;1.20;;;;;;;13.24;49.83;99371.78;4443777;32;32895;-82
2023/04/22 00:39:31;;;;;;;0.70;0.70;;;;;;;13.27;49.11;99368.28;4443235;32;34570;-81
2023/04/22 00:42:00;;;;;;;0.80;0.75;;;;;;;13.10;49.66;99363.53;4447451;32;33789;-82
2023/04/22 00:44:31;;;;;;;3.40;1.12;;;;;;;13.18;49.51;99366.75;4442805;32;33145;-81
2023/04/22 00:47:00;;;;;;;1.15;1.08;;;;;;;13.01;50.19;99369.00;4443785;32;33511;-82
2023/04/22 00:49:29;;;;;;;1.15;1.00;;;;;;;12.90;50.36;99373.63;4442392;32;33706;-83
2023/04/22 00:51:57;;;;;;;1.20;1.10;;;;;;;13.07;50.27;99368.81;4448185;32;33827;-81
2023/04/22 00:54:27;;;;;;;0.80;0.80;;;;;;;13.06;50.69;99364.50;4442719;32;33356;-83
2023/04/22 00:56:57;;;;;;;0.82;0.82;;;;;;;12.88;51.17;99373.69;4440956;32;33677;-82
2023/04/22 00:59:26;;;;;;;0.90;0.90;;;;;;;13.11;50.77;99357.41;4435019;32;33240;-82
2023/04/22 01:01:56;;;;;;;0.80;0.80;;;;;;;13.01;50.91;99356.81;4438647;32;33516;-82
2023/04/22 01:04:25;;;;;;;1.58;0.80;;;;;;;13.06;50.91;99364.50;4427084;32;33532;-82
2023/04/22 01:06:55;;;;;;;2.60;0.85;;;;;;;13.15;50.83;99364.25;4438294;32;33284;-82
2023/04/22 01:09:24;;;;;;;1.95;0.90;;;;;;;13.08;50.88;99362.72;4441684;32;33749;-81
2023/04/22 01:11:52;;;;;;;0.80;0.70;;;;;;;13.15;50.67;99368.59;4442637;32;33919;-81
2023/04/22 01:14:24;;;;;;;1.60;1.50;;;;;;;13.38;49.93;99370.56;4444363;32;33310;-81
2023/04/22 01:16:53;;;;;;;1.05;0.95;;;;;;;13.20;49.88;99362.34;4438960;32;33785;-82
2023/04/22 01:19:24;;;;;;;0.90;0.88;;;;;;;13.17;50.74;99372.03;4435025;32;33999;-82
2023/04/22 01:21:54;;;;;;;1.75;1.65;;;;;;;12.65;51.91;99376.06;4441648;32;33497;-80
2023/04/22 01:24:25;;;;;;;0.85;0.85;;;;;;;12.91;51.51;99377.97;4445076;32;33552;-81
2023/04/22 01:26:54;;;;;;;0.97;0.90;;;;;;;13.03;50.84;99380.22;4441823;32;33026;-81
2023/04/22 01:29:23;;;;;;;0.90;0.90;;;;;;;12.89;51.51;99382.34;4429817;32;34619;-81
2023/04/22 01:31:52;;;;;;;0.75;0.75;;;;;;;12.71;51.85;99378.47;4431147;32;33903;-82
2023/04/22 01:34:22;;;;;;;0.82;0.77;;;;;;;12.70;51.82;99382.00;4434657;32;31998;-82
2023/04/22 01:36:51;;;;;;;4.22;1.10;;;;;;;12.71;52.04;99373.28;4446708;32;34320;-81
2023/04/22 01:39:20;;;;;;;0.80;0.75;;;;;;;12.84;51.77;99379.03;4434400;32;33458;-83
2023/04/22 01:41:50;;;;;;;0.98;0.90;;;;;;;12.85;52.02;99381.56;4440083;32;33500;-82
2023/04/22 01:44:19;;;;;;;1.10;1.00;;;;;;;12.68;52.44;99382.03;4443093;32;33961;-82
2023/04/22 01:46:48;;;;;;;2.12;1.00;;;;;;;12.65;52.72;99383.87;4437239;32;33859;-82
2023/04/22 01:49:17;;;;;;;1.42;1.33;;;;;;;12.72;52.70;99383.66;4435254;32;33733;-82
2023/04/22 01:51:46;;;;;;;1.60;1.05;;;;;;;12.52;53.04;99388.53;4428452;32;33378;-81
2023/04/22 01:54:15;;;;;;;0.95;0.90;;;;;;;12.72;52.38;99383.66;4427873;32;33013;-81
2023/04/22 01:56:50;;;;;;;1.65;1.15;;;;;;;12.47;53.00;99380.00;4437886;32;33834;-81
2023/04/22 01:59:19;;;;;;;1.00;1.00;;;;;;;12.54;52.87;99384.13;4447973;32;34317;-81
2023/04/22 02:01:49;;;;;;;1.10;1.00;;;;;;;12.77;51.98;99381.78;4436432;32;33453;-81
2023/04/22 02:04:19;;;;;;;1.30;1.08;;;;;;;12.62;52.20;99379.59;4435099;32;33022;-81
2023/04/22 02:06:48;;;;;;;0.85;0.85;;;;;;;12.52;52.68;99381.59;4432126;32;34444;-82
2023/04/22 02:09:17;;;;;;;1.45;1.33;;;;;;;12.46;52.69;99376.53;4439810;32;33751;-81
2023/04/22 02:11:46;;;;;;;1.20;0.90;;;;;;;12.50;52.78;99379.94;4431866;32;35803;-81
2023/04/22 02:14:16;;;;;;;0.88;0.88;;;;;;;12.53;52.57;99372.03;4440496;32;33188;-81
2023/04/22 02:16:45;;;;;;;1.00;0.90;;;;;;;12.57;51.84;99371.91;4430846;32;33539;-81
2023/04/22 02:19:14;;;;;;;1.25;0.95;;;;;;;12.68;51.81;99376.81;4437681;32;34381;-82
2023/04/22 02:21:43;;;;;;;1.60;1.12;;;;;;;12.58;51.87;99381.41;4441561;32;33782;-82
2023/04/22 02:24:11;;;;;;;1.83;1.15;;;;;;;12.57;51.61;99376.28;4438267;32;33138;-80
2023/04/22 02:26:42;;;;;;;1.52;1.15;;;;;;;12.57;52.04;99376.28;4440214;32;33160;-82
2023/04/22 02:29:10;;;;;;;0.93;0.93;;;;;;;12.65;51.29;99369.09;4433280;32;33030;-82
2023/04/22 02:31:40;;;;;;;1.52;1.10;;;;;;;12.59;51.97;99377.09;4441832;32;33261;-82
2023/04/22 02:34:10;;;;;;;1.33;1.00;;;;;;;12.50;52.22;99377.31;4430498;32;33096;-82
2023/04/22 02:36:39;;;;;;;2.95;1.80;;;;;;;12.67;51.87;99374.28;4441233;32;33869;-82
2023/04/22 02:39:08;;;;;;;1.45;1.20;;;;;;;12.75;51.58;99374.91;4430731;32;34360;-81
2023/04/22 02:41:37;;;;;;;0.98;0.95;;;;;;;12.59;52.07;99370.13;4444678;32;34429;-81
2023/04/22 02:44:06;;;;;;;1.70;1.12;;;;;;;12.38;52.72;99378.50;4437340;32;33446;-82
2023/04/22 02:46:38;;;;;;;1.20;1.10;;;;;;;12.51;52.44;99371.22;4440882;32;34592;-82
2023/04/22 02:49:09;;;;;;;1.02;0.95;;;;;;;12.59;52.39;99374.50;4435768;32;33949;-81
2023/04/22 02:51:38;;;;;;;1.15;1.05;;;;;;;12.60;52.13;99376.19;4445927;32;33712;-82
2023/04/22 02:54:07;;;;;;;0.93;0.93;;;;;;;12.57;52.69;99364.09;4445436;32;31648;-82
2023/04/22 02:56:36;;;;;;;2.05;0.80;;;;;;;12.63;52.64;99365.69;4431038;32;33935;-81
2023/04/22 02:59:05;;;;;;;2.10;0.93;;;;;;;12.65;52.76;99366.50;4430759;32;33661;-81
2023/04/22 03:01:34;;;;;;;3.55;1.30;;;;;;;12.70;52.73;99364.62;4430919;32;34409;-82
2023/04/22 03:04:04;;;;;;;4.37;0.98;;;;;;;12.70;52.69;99371.59;4437291;32;33699;-81
2023/04/22 03:06:34;;;;;;;0.70;0.70;;;;;;;12.67;52.45;99369.91;4435975;32;34558;-80
2023/04/22 03:09:04;;;;;;;1.10;1.00;;;;;;;12.78;51.91;99367.00;4431061;32;33134;-81
2023/04/22 03:11:52;;;;;;;0.70;0.70;;;;;;;12.84;52.23;99371.22;4439051;32;34724;-81
2023/04/22 03:14:21;;;;;;;1.02;1.02;;;;;;;12.73;52.67;99372.38;4437785;32;33403;-82
2023/04/22 03:16:50;;;;;;;1.30;1.08;;;;;;;12.69;52.76;99373.34;4438906;32;33058;-82
2023/04/22 03:19:19;;;;;;;1.00;1.00;;;;;;;12.70;52.76;99376.78;4441022;32;33533;-82
2023/04/22 03:21:49;;;;;;;1.30;0.85;;;;;;;12.78;52.67;99377.41;4433891;32;33761;-82
2023/04/22 03:24:18;;;;;;;2.13;1.37;;;;;;;12.67;52.90;99380.31;4434332;32;33407;-81
2023/04/22 03:26:48;;;;;;;0.90;0.90;;;;;;;12.68;53.05;99376.81;4430898;32;33416;-82
2023/04/22 03:29:16;;;;;;;0.98;0.90;;;;;;;12.63;53.32;99381.28;4446974;32;33972;-80
2023/04/22 03:31:45;;;;;;;0.80;0.80;;;;;;;12.85;52.68;99378.13;4437359;32;33951;-81
2023/04/22 03:34:14;;;;;;;1.12;1.00;;;;;;;12.81;52.91;99383.41;4432811;32;33604;-81
2023/04/22 03:36:44;;;;;;;0.70;0.70;;;;;;;12.66;53.18;99382.97;4442046;32;33426;-81
2023/04/22 03:39:17;;;;;;;1.20;1.10;;;;;;;12.69;53.13;99386.34;4441533;32;33783;-81
2023/04/22 03:41:46;;;;;;;0.75;0.75;;;;;;;12.71;53.00;99387.16;4429758;32;34034;-82
2023/04/22 03:44:16;;;;;;;1.70;1.20;;;;;;;12.67;53.18;99390.75;4442634;32;34067;-82
2023/04/22 03:46:44;;;;;;;0.70;0.70;;;;;;;12.57;53.32;99391.87;4432683;32;33841;-81
2023/04/22 03:49:14;;;;;;;0.82;0.82;;;;;;;12.43;53.61;99388.78;4434769;32;34825;-80
2023/04/22 03:51:43;;;;;;;1.85;0.93;;;;;;;12.43;53.62;99393.97;4441409;32;34158;-82
2023/04/22 03:54:14;;;;;;;1.45;0.80;;;;;;;12.43;53.48;99393.97;4430401;32;33490;-80
2023/04/22 03:56:45;;;;;;;1.05;0.90;;;;;;;12.11;54.18;99391.28;4431883;32;34406;-81
2023/04/22 03:59:13;;;;;;;1.00;0.93;;;;;;;12.48;53.37;99392.13;4435645;32;33542;-82
2023/04/22 04:01:42;;;;;;;0.88;0.88;;;;;;;12.30;53.63;99391.69;4439259;32;34497;-81
2023/04/22 04:04:11;;;;;;;0.90;0.90;;;;;;;12.31;53.76;99393.38;4431797;32;34149;-81
2023/04/22 04:06:41;;;;;;;2.33;2.12;;;;;;;12.30;53.69;99394.28;4436719;32;33416;-81
2023/04/22 04:09:10;;;;;;;0.95;0.85;;;;;;;12.32;53.55;99400.31;4429042;32;33740;-82
2023/04/22 04:11:40;;;;;;;1.77;1.12;;;;;;;12.34;53.06;99397.66;4436963;32;33151;-81
2023/04/22 04:14:09;;;;;;;1.25;1.15;;;;;;;12.30;53.31;99401.25;4436843;32;31047;-81
2023/04/22 04:16:38;;;;;;;0.70;0.70;;;;;;;12.32;53.69;99408.13;4434423;32;33874;-80
2023/04/22 04:19:08;;;;;;;1.20;1.10;;;;;;;12.32;52.81;99400.31;4428938;32;33626;-82
2023/04/22 04:21:38;;;;;;;1.30;0.88;;;;;;;12.30;53.12;99399.50;4430659;32;34138;-82
2023/04/22 04:24:07;;;;;;;1.07;0.77;;;;;;;12.35;53.25;99405.44;4442205;32;33453;-81
2023/04/22 04:26:36;;;;;;;2.28;1.52;;;;;;;12.35;53.44;99407.19;4443380;32;34011;-81
2023/04/22 04:29:08;;;;;;;1.23;1.13;;;;;;;12.45;53.47;99405.22;4437279;32;34038;-80
2023/04/22 04:31:38;;;;;;;0.98;0.95;;;;;;;12.37;53.94;99403.66;4435549;32;33401;-82
2023/04/22 04:34:07;;;;;;;1.12;0.98;;;;;;;12.41;54.16;99411.38;4445202;32;34226;-81
2023/04/22 04:36:38;;;;;;;1.55;0.98;;;;;;;12.43;54.31;99410.44;4436076;32;34026;-82
2023/04/22 04:39:08;;;;;;;2.58;2.22;;;;;;;12.59;54.02;99413.53;4431826;32;34001;-81
2023/04/22 04:41:37;;;;;;;0.90;0.90;;;;;;;12.70;53.67;99415.81;4430116;32;34798;-82
2023/04/22 04:44:08;;;;;;;1.35;0.90;;;;;;;12.70;53.84;99416.69;4430704;32;34344;-82
2023/04/22 04:46:37;;;;;;;0.82;0.82;;;;;;;12.75;53.93;99419.16;4447464;32;34893;-81
2023/04/22 04:49:11;;;;;;;1.15;1.05;;;;;;;12.75;54.18;99419.16;4441405;32;33998;-81
2023/04/22 04:51:40;;;;;;;1.35;1.05;;;;;;;12.85;54.22;99428.44;4445692;32;33954;-82
2023/04/22 04:54:09;;;;;;;1.08;1.05;;;;;;;13.10;53.34;99427.78;4444775;32;33358;-82
2023/04/22 04:56:38;;;;;;;2.28;1.92;;;;;;;13.08;53.59;99422.59;4446801;32;33476;-83
2023/04/22 04:59:10;;;;;;;1.95;1.65;;;;;;;13.09;53.99;99433.88;4436690;32;34192;-83
2023/04/22 05:01:39;;;;;;;0.77;0.73;;;;;;;13.00;54.12;99428.03;4440019;32;34295;-81
2023/04/22 05:04:08;;;;;;;0.75;0.75;;;;;;;13.20;54.15;99432.69;4433156;32;31308;-81
2023/04/22 05:06:38;;;;;;;2.22;1.37;;;;;;;13.39;52.60;99425.22;4446419;32;33554;-81
2023/04/22 05:09:07;;;;;;;2.08;0.95;;;;;;;13.51;52.61;99431.84;4441342;32;33697;-81
2023/04/22 05:11:36;;;;;;;2.80;2.35;;;;;;;13.54;51.92;99431.75;4445073;32;34587;-82
2023/04/22 05:14:08;;;;;;;0.75;0.73;;;;;;;13.97;51.17;99432.22;4436137;32;33304;-81
2023/04/22 05:16:38;;;;;;;0.90;0.90;;;;;;;14.54;48.61;99430.41;4433214;32;34277;-81
2023/04/22 05:19:08;;;;;;;1.83;1.73;;;;;;;14.34;49.54;99438.84;4439974;32;32969;-82
2023/04/22 05:21:37;;;;;;;5.43;1.40;;;;;;;15.03;47.83;99433.91;4440077;32;34270;-82
2023/04/22 05:24:06;;;;;;;0.80;0.80;;;;;;;15.81;44.51;99432.84;4436160;32;34134;-81
2023/04/22 05:26:35;;;;;;;1.10;0.75;;;;;;;16.07;43.65;99437.91;4443759;32;33529;-81
2023/04/22 05:29:05;;;;;;;1.08;0.77;;;;;;;16.58;42.40;99434.06;4438467;32;33400;-82
2023/04/22 05:31:34;;;;;;;1.25;1.15;;;;;;;16.77;41.73;99434.12;4433471;32;33291;-81
2023/04/22 05:34:04;;;;;;;0.60;0.60;;;;;;;17.13;41.50;99430.00;4428211;32;33296;-82
2023/04/22 05:36:33;;;;;;;1.35;0.82;;;;;;;17.40;41.02;99422.69;4434255;32;33814;-81
2023/04/22 05:39:02;;;;;;;1.12;1.02;;;;;;;17.56;40.23;99428.91;4443227;32;34055;-84
2023/04/22 05:41:32;;;;;;;1.87;0.93;;;;;;;17.59;40.44;99428.78;4437061;32;33612;-84
2023/04/22 05:44:02;;;;;;;1.00;0.90;;;;;;;17.55;40.73;99432.47;4431712;32;34865;-83
2023/04/22 05:46:31;;;;;;;1.23;0.82;;;;;;;17.65;41.11;99435.50;4435331;32;33412;-83
2023/04/22 05:49:00;;;;;;;0.80;0.80;;;;;;;17.69;40.64;99435.31;4440114;32;34579;-84
2023/04/22 05:51:31;;;;;;;0.95;0.85;;;;;;;17.57;40.44;99438.50;4430855;32;34933;-82
2023/04/22 05:54:00;;;;;;;0.60;0.60;;;;;;;17.60;40.72;99442.75;4438859;32;31625;-84
2023/04/22 05:56:29;;;;;;;0.62;0.60;;;;;;;17.48;39.89;99439.75;4431744;32;33075;-84
2023/04/22 05:58:59;;;;;;;0.70;0.70;;;;;;;17.24;40.80;99441.72;4443464;32;33484;-84
2023/04/22 06:01:28;;;;;;;1.58;1.02;;;;;;;17.01;41.57;99442.75;4439344;32;33838;-84
2023/04/22 06:03:57;;;;;;;1.15;0.90;;;;;;;16.87;41.59;99447.72;4436576;32;33396;-83
2023/04/22 06:06:27;;;;;;;1.40;0.90;;;;;;;16.49;42.10;99444.91;4429292;32;34184;-83
2023/04/22 06:08:57;;;;;;;1.48;0.90;;;;;;;16.64;41.61;99452.13;4429860;32;34065;-82
2023/04/22 06:11:27;;;;;;;0.77;0.77;;;;;;;16.86;41.67;99453.84;4438303;32;33225;-83
2023/04/22 06:13:55;;;;;;;0.55;0.52;;;;;;;16.89;41.46;99445.91;4434168;32;33769;-83
2023/04/22 06:16:25;;;;;;;1.12;1.02;;;;;;;16.72;40.95;99453.56;4436862;32;33563;-83
2023/04/22 06:18:54;;;;;;;1.08;0.68;;;;;;;16.61;40.16;99452.25;4446185;32;33656;-82
2023/04/22 06:21:23;;;;;;;0.75;0.73;;;;;;;16.63;40.52;99460.91;4461819;32;33659;-83
2023/04/22 06:23:51;;;;;;;0.90;0.85;;;;;;;16.66;41.35;99461.69;4454246;32;34318;-84
2023/04/22 06:26:23;;;;;;;0.68;0.65;;;;;;;16.83;41.78;99465.31;4451881;32;33360;-83
2023/04/22 06:28:51;;;;;;;1.15;1.05;;;;;;;16.60;42.22;99463.66;4441761;32;35984;-83
2023/04/22 06:31:21;;;;;;;1.67;1.10;;;;;;;16.97;41.20;99464.75;4436336;32;33369;-84
2023/04/22 06:33:49;;;;;;;1.48;0.93;;;;;;;16.81;42.07;99464.53;4445494;32;33990;-84
2023/04/22 06:36:18;;;;;;;0.77;0.65;;;;;;;16.61;42.83;99460.09;4448483;32;33114;-83
2023/04/22 06:38:48;;;;;;;1.08;0.98;;;;;;;16.48;42.02;99463.28;4451579;32;35596;-83
2023/04/22 06:41:18;;;;;;;1.12;0.80;;;;;;;16.58;41.87;99462.03;4446464;32;34205;-82
2023/04/22 06:43:49;;;;;;;0.80;0.80;;;;;;;16.44;42.58;99459.97;4443397;32;34075;-82
2023/04/22 06:46:25;;;;;;;0.50;0.50;;;;;;;16.15;41.93;99459.37;4436080;32;33392;-83
2023/04/22 06:49:02;;;;;;;1.15;0.93;;;;;;;16.58;41.05;99467.25;4451490;32;33657;-83
2023/04/22 06:51:31;;;;;;;0.80;0.80;;;;;;;16.38;41.74;99465.44;4447368;32;33378;-83
2023/04/22 06:54:02;;;;;;;0.60;0.60;;;;;;;16.59;39.86;99459.31;4438107;32;34516;-83
2023/04/22 06:56:31;;;;;;;2.00;1.12;;;;;;;16.80;39.86;99467.25;4436966;32;33697;-83
2023/04/22 06:59:01;;;;;;;0.75;0.65;;;;;;;17.06;38.51;99461.72;4446280;32;33685;-83
2023/04/22 07:01:30;;;;;;;0.60;0.60;;;;;;;16.98;38.65;99465.59;4450735;32;33627;-81
2023/04/22 07:03:59;;;;;;;0.60;0.60;;;;;;;16.84;34.96;99468.78;4430151;32;33945;-80
2023/04/22 07:06:28;;;;;;;3.45;0.90;;;;;;;16.75;34.20;99459.53;4432383;32;31991;-81
2023/04/22 07:08:57;;;;;;;1.52;0.77;;;;;;;16.81;34.87;99471.56;4441615;32;33657;-82
2023/04/22 07:11:26;;;;;;;0.75;0.70;;;;;;;17.36;32.77;99465.69;4438894;32;33831;-81
2023/04/22 07:13:55;;;;;;;0.60;0.60;;;;;;;17.06;34.65;99461.72;4446163;32;33680;-81
2023/04/22 07:16:26;;;;;;;0.73;0.73;;;;;;;17.38;34.36;99467.31;4444599;32;33950;-81
2023/04/22 07:18:56;;;;;;;1.08;0.68;;;;;;;17.38;33.97;99469.94;4435103;32;34559;-81
2023/04/22 07:21:25;;;;;;;0.75;0.75;;;;;;;17.40;34.12;99472.50;4436857;32;33133;-81
2023/04/22 07:23:54;;;;;;;1.27;0.80;;;;;;;17.46;35.17;99472.22;4438369;32;33281;-81
2023/04/22 07:26:23;;;;;;;1.33;0.85;;;;;;;17.92;34.77;99467.50;4439249;32;33407;-81
2023/04/22 07:28:52;;;;;;;1.60;1.35;;;;;;;17.86;34.54;99465.19;4429372;32;34530;-81
2023/04/22 07:31:20;;;;;;;0.60;0.60;;;;;;;17.99;32.96;99461.06;4428923;32;34246;-81
2023/04/22 07:33:52;;;;;;;0.95;0.80;;;;;;;17.88;30.77;99466.81;4435148;32;33512;-81
2023/04/22 07:36:21;;;;;;;0.77;0.52;;;;;;;18.25;31.39;99467.69;4433794;32;33311;-81
2023/04/22 07:38:50;;;;;;;0.85;0.80;;;;;;;18.30;31.01;99464.84;4444764;32;33258;-81
2023/04/22 07:41:19;;;;;;;2.75;0.73;;;;;;;18.46;31.09;99462.28;4443194;32;33578;-81
2023/04/22 07:43:48;;;;;;;1.00;0.77;;;;;;;18.51;31.81;99460.31;4433235;32;32789;-81
2023/04/22 07:46:17;;;;;;;0.85;0.85;;;;;;;18.75;31.09;99464.34;4434325;32;33291;-81
2023/04/22 07:48:45;;;;;;;1.50;0.73;;;;;;;18.97;30.90;99461.50;4433263;32;33637;-81
2023/04/22 07:51:16;;;;;;;0.50;0.50;;;;;;;18.97;28.48;99455.41;4430564;32;34274;-81
2023/04/22 07:53:45;;;;;;;2.28;1.10;;;;;;;18.90;28.18;99469.78;4430393;32;34111;-82
2023/04/22 07:56:14;;;;;;;1.05;0.68;;;;;;;19.03;29.39;99464.75;4435786;32;34435;-81
2023/04/22 07:58:43;;;;;;;1.67;1.37;;;;;;;19.21;29.46;99466.44;4430477;32;33718;-82
2023/04/22 08:01:12;;;;;;;0.60;0.60;;;;;;;19.45;29.02;99461.66;4429926;32;35156;-80
2023/04/22 08:03:41;;;;;;;0.75;0.60;;;;;;;19.34;28.43;99458.72;4430428;32;33300;-82
2023/04/22 08:06:10;;;;;;;1.27;0.75;;;;;;;19.48;28.14;99464.09;4435980;32;33038;-81
2023/04/22 08:08:40;;;;;;;1.27;0.75;;;;;;;19.56;28.77;99461.06;4430246;32;34255;-81
2023/04/22 08:11:09;;;;;;;0.50;0.50;;;;;;;19.35;28.41;99461.28;4431002;32;33046;-81
2023/04/22 08:13:37;;;;;;;1.50;0.80;;;;;;;19.64;28.29;99458.00;4436846;32;34090;-81
2023/04/22 08:16:07;;;;;;;0.70;0.70;;;;;;;19.52;27.69;99462.16;4439390;32;33567;-82
2023/04/22 08:18:40;;;;;;;1.40;0.80;;;;;;;19.95;27.10;99465.94;4447043;32;33917;-82
2023/04/22 08:21:08;;;;;;;1.23;0.62;;;;;;;19.85;26.97;99466.56;4443345;32;34034;-82
2023/04/22 08:23:37;;;;;;;1.80;0.80;;;;;;;19.70;26.74;99469.09;4443525;32;33437;-81
2023/04/22 08:26:10;;;;;;;2.78;1.17;;;;;;;19.56;28.11;99472.44;4445639;32;34392;-83
2023/04/22 08:28:39;;;;;;;0.57;0.57;;;;;;;19.52;28.49;99467.41;4451512;32;33764;-82
2023/04/22 08:31:10;;;;;;;2.25;1.58;;;;;;;19.48;27.90;99468.53;4444906;32;33634;-82
2023/04/22 08:33:40;;;;;;;1.95;0.70;;;;;;;19.13;28.53;99466.81;4444012;32;33057;-82
2023/04/22 08:36:10;;;;;;;2.10;1.37;;;;;;;19.52;28.65;99478.81;4445682;32;33440;-81
2023/04/22 08:38:38;;;;;;;1.33;0.88;;;;;;;19.70;29.19;99468.25;4445783;32;33761;-82
2023/04/22 08:41:09;;;;;;;0.95;0.80;;;;;;;19.89;27.72;99470.72;4448892;32;33246;-83
2023/04/22 08:43:38;;;;;;;0.70;0.62;;;;;;;19.76;27.16;99471.38;4430319;32;33227;-81
2023/04/22 08:46:07;;;;;;;0.65;0.50;;;;;;;19.88;27.25;99472.50;4429871;32;33652;-83
2023/04/22 08:48:36;;;;;;;1.02;0.80;;;;;;;19.98;26.84;99476.34;4431172;32;35223;-81
2023/04/22 08:51:05;;;;;;;0.70;0.62;;;;;;;19.80;27.82;99470.28;4448278;32;34358;-83
2023/04/22 08:53:34;;;;;;;2.28;1.10;;;;;;;19.71;27.36;99464.66;4438412;32;33917;-82
2023/04/22 08:56:03;;;;;;;1.42;1.10;;;;;;;20.13;27.14;99471.16;4430025;32;33750;-82
2023/04/22 08:58:34;;;;;;;1.65;0.88;;;;;;;19.61;28.02;99467.75;4429895;32;33528;-82
2023/04/22 09:01:03;;;;;;;1.92;0.90;;;;;;;19.75;27.70;99466.22;4435793;32;33469;-82
2023/04/22 09:03:32;;;;;;;0.62;0.62;;;;;;;20.06;27.89;99468.00;4450953;32;32547;-82
2023/04/22 09:06:05;;;;;;;0.62;0.60;;;;;;;20.17;27.40;99462.13;4444877;32;33413;-84
2023/04/22 09:08:35;;;;;;;1.27;0.52;;;;;;;20.38;27.80;99473.22;4445276;32;35365;-81
2023/04/22 09:11:04;;;;;;;1.00;0.88;;;;;;;20.71;26.69;99470.47;4454717;32;33426;-81
2023/04/22 09:13:34;;;;;;;1.15;1.02;;;;;;;20.51;27.86;99468.09;4449503;32;33647;-82
2023/04/22 09:16:03;;;;;;;0.95;0.77;;;;;;;20.35;27.60;99469.00;4443256;32;34362;-83
2023/04/22 09:18:39;;;;;;;0.50;0.50;;;;;;;20.10;28.45;99468.66;4443793;32;33695;-82
2023/04/22 09:21:09;;;;;;;0.70;0.70;;;;;;;20.29;28.05;99468.50;4443073;32;33232;-82
2023/04/22 09:23:48;;;;;;;1.85;1.75;;;;;;;20.59;27.39;99463.28;4443448;32;32635;-82
2023/04/22 09:26:19;;;;;;;0.82;0.62;;;;;;;20.56;27.17;99466.94;4450237;32;35245;-82
2023/04/22 09:28:51;;;;;;;1.08;0.70;;;;;;;20.56;28.34;99464.31;4443958;32;33614;-82
2023/04/22 09:31:21;;;;;;;0.77;0.77;;;;;;;20.68;28.68;99462.72;4443349;32;34246;-83
2023/04/22 09:33:51;;;;;;;1.75;0.60;;;;;;;21.10;28.01;99461.13;4445227;32;33029;-82
2023/04/22 09:36:22;;;;;;;0.88;0.68;;;;;;;20.97;27.23;99465.44;4448262;32;34569;-81
2023/04/22 09:38:53;;;;;;;0.52;0.52;;;;;;;21.08;27.21;99455.94;4450526;32;33774;-83
2023/04/22 09:41:29;;;;;;;0.70;0.65;;;;;;;21.17;26.55;99457.19;4443521;32;33146;-82
2023/04/22 09:44:00;;;;;;;1.10;0.62;;;;;;;21.40;26.13;99452.31;4445261;32;33680;-82
2023/04/22 09:46:30;;;;;;;1.12;0.68;;;;;;;21.12;27.46;99458.38;4442054;32;34212;-83
2023/04/22 09:48:59;;;;;;;1.00;0.87;;;;;;;21.57;25.73;99443.34;4457199;32;33362;-83
2023/04/22 09:51:31;;;;;;;1.25;0.93;;;;;;;21.11;27.19;99447.00;4453460;32;34140;-82
2023/04/22 09:54:00;;;;;;;;;;;;;;;21.18;27.20;99448.31;4445208;32;34380;-82
2023/04/22 09:56:47;;;;;;;1.08;0.98;;;;;;;21.61;27.18;99443.06;4444740;32;34620;-81
2023/04/22 09:59:21;;;;;;;1.00;0.68;;;;;;;21.67;27.35;99432.13;4444910;32;33436;-83
2023/04/22 10:01:52;;;;;;;0.50;0.50;;;;;;;21.59;28.46;99433.56;4442683;32;33561;-82
2023/04/22 10:04:22;;;;;;;0.50;0.50;;;;;;;21.77;29.47;99435.03;4444554;32;33181;-81
2023/04/22 10:06:51;;;;;;;0.50;0.50;;;;;;;21.99;27.06;99423.94;4444842;32;34571;-81
2023/04/22 10:09:21;;;;;;;0.80;0.80;;;;;;;21.72;27.63;99427.41;4444606;32;33174;-83
2023/04/22 10:11:52;;;;;;;0.40;0.40;;;;;;;21.52;27.00;99422.53;4443520;32;34681;-82
2023/04/22 10:14:27;;;;;;;0.55;0.45;;;;;;;22.01;26.77;99421.19;4449301;32;33938;-81
2023/04/22 10:16:59;;;;;;;0.93;0.75;;;;;;;22.03;26.45;99416.66;4444552;32;33455;-83
2023/04/22 10:19:28;;;;;;;1.02;0.73;;;;;;;22.00;25.61;99420.34;4442500;32;33323;-82
2023/04/22 10:21:59;;;;;;;1.33;1.08;;;;;;;22.18;24.91;99415.66;4444114;32;33424;-82
2023/04/22 10:24:29;;;;;;;2.05;1.00;;;;;;;22.01;26.14;99419.41;4450071;32;32694;-82
2023/04/22 10:27:00;;;;;;;1.45;0.75;;;;;;;22.31;26.27;99413.09;4446819;32;33044;-81
2023/04/22 10:29:37;;;;;;;2.08;0.77;;;;;;;22.60;24.60;99405.00;4446446;32;33726;-82
2023/04/22 10:32:24;;;;;;;0.80;0.57;;;;;;;22.87;24.24;99408.41;4444149;32;33877;-82
2023/04/22 10:35:08;;;;;;;1.80;0.73;;;;;;;22.69;24.03;99412.28;4444579;32;33257;-82
2023/04/22 10:37:41;;;;;;;1.55;0.57;;;;;;;22.78;24.41;99401.09;4444184;32;33707;-83
2023/04/22 10:40:14;;;;;;;1.17;0.50;;;;;;;22.80;25.62;99401.84;4443400;32;33424;-82
2023/04/22 10:42:49;;;;;;;2.10;0.70;;;;;;;22.74;24.32;99399.63;4430355;32;34180;-82
2023/04/22 10:45:19;;;;;;;1.10;0.85;;;;;;;23.02;24.11;99403.88;4431294;32;33721;-82
2023/04/22 10:47:48;;;;;;;;;;;;;;;22.67;24.31;99408.94;4439816;32;33658;-84
2023/04/22 10:50:20;;;;;;;2.05;0.93;;;;;;;22.66;25.52;99400.13;4444133;32;33771;-83
2023/04/22 10:52:51;;;;;;;0.60;0.50;;;;;;;22.93;25.23;99402.72;4449541;32;33189;-84
2023/04/22 10:55:21;;;;;;;0.65;0.60;;;;;;;23.48;24.32;99403.31;4446475;32;34422;-84
2023/04/22 10:57:51;;;;;;;1.83;0.90;;;;;;;23.27;22.43;99392.47;4447222;32;34563;-83
2023/04/22 11:00:27;;;;;;;1.10;0.70;;;;;;;23.21;23.04;99390.22;4445629;32;33715;-83
2023/04/22 11:03:13;;;;;;;1.10;0.70;;;;;;;22.71;23.57;99391.87;4448902;32;34638;-84
2023/04/22 11:05:42;;;;;;;0.93;0.60;;;;;;;22.99;22.85;99389.06;4452150;32;32555;-83
2023/04/22 11:08:29;;;;;;;1.95;1.17;;;;;;;22.63;23.78;99391.59;4446243;32;33361;-84
2023/04/22 11:11:08;;;;;;;0.73;0.50;;;;;;;22.65;24.06;99389.69;4435401;32;33524;-83
2023/04/22 11:13:37;;;;;;;0.93;0.73;;;;;;;22.68;23.10;99394.75;4430879;32;33545;-82
2023/04/22 11:16:08;;;;;;;0.85;0.52;;;;;;;22.95;22.54;99392.88;4431222;32;33243;-83
2023/04/22 11:18:37;;;;;;;2.35;1.37;;;;;;;22.82;23.49;99397.31;4436154;32;33857;-82
2023/04/22 11:21:07;;;;;;;2.15;0.95;;;;;;;22.82;24.66;99393.81;4442428;32;33915;-83
2023/04/22 11:23:36;;;;;;;0.47;0.47;;;;;;;22.59;25.27;99396.22;4446128;32;33537;-83
2023/04/22 11:26:06;;;;;;;0.75;0.57;;;;;;;22.55;24.83;99389.47;4444533;32;32304;-83
2023/04/22 11:28:35;;;;;;;0.45;0.43;;;;;;;22.11;24.83;99390.59;4451510;32;33291;-82
2023/04/22 11:31:08;;;;;;;0.50;0.47;;;;;;;21.88;26.04;99397.38;4434016;32;34789;-84
2023/04/22 11:33:42;;;;;;;0.90;0.70;;;;;;;21.65;26.39;99389.13;4430515;32;34378;-82
2023/04/22 11:36:12;;;;;;;0.88;0.85;;;;;;;21.52;27.67;99390.84;4430754;32;33026;-83
2023/04/22 11:38:40;;;;;;;0.65;0.47;;;;;;;21.53;27.81;99395.19;4430582;32;33604;-82
2023/04/22 11:41:09;;;;;;;3.25;1.48;;;;;;;21.62;27.10;99397.22;4446121;32;34024;-84
2023/04/22 11:43:46;;;;;;;1.25;0.82;;;;;;;21.74;26.67;99393.81;4437327;32;34539;-81
2023/04/22 11:46:16;;;;;;;0.73;0.65;;;;;;;21.68;27.46;99396.84;4429881;32;33704;-83
2023/04/22 11:48:47;;;;;;;0.73;0.52;;;;;;;21.76;26.71;99390.25;4430623;32;34158;-82